KVJIKSPA

Guest
Details From KVJI - Virginia Highlands
To KSPA - SPARTANBURG DOWNTOWN MEM
Flight Number -
Tags generated
Created
Modified
Stats Distance 107 nm / 197 km
Max Altitude 8,100 ft / 2,469 m
Waypoints 3
Social Downloads 1
Likes 0
Share

Download

Looking for another format? Having issues loading an existing format? Contact us
Advertisement - Login to hide

Notes

Basic altitude profile: - Ascent Rate: 2500ft/min - Ascent Speed: 250kts - Cruise Altitude: 35000ft - Cruise Speed: 420kts - Descent Rate: 1500ft/min - Descent Speed: 250kts Options: - Use NATs: yes - Use PACOTS: yes - Use low airways: yes - Use high airways: yes

Route

KVJI GENOD KSPA

ID Type Via Altitude (ft/m) Position (lat/lon) Dist (leg/tot) Name
O KVJI APT - 0 / 0 36.68710 / -82.03330 - / 0 nm Virginia Highlands
GENOD FIX - 8,100 / 2,469 35.55170 / -81.94920 68 / 68 nm
O KSPA APT - 0 / 0 34.91460 / -81.95440 38 / 106 nm SPARTANBURG DOWNTOWN MEM

Altitude Profile

Advertisement - Login to hide

KVJI

Details ICAO KVJI
Name Virginia Highlands
Region United States
Timezone America/New_York (UTC-4.0)
Stats Elevation 2,087 ft / 636 m (AMSL)
Location 36.687100° -82.033300°
Runways 1
Magnetic Variation 7.475° W

METAR

KVJI 020855Z AUTO 28004KT 3SM BR OVC007 10/10 A2999 RMK AO2 T00950095

Decode

TAF

Not found

Departure Runways

ID Width Length Bearing (true/mag) Surface Threshold Overrun Markings Lighting
06 75 ft / 23 m 4,467 ft / 1,361 m 55.90° / 63.38° ASPHALT 0 ft / 0 m 98 ft / 30 m APP EDGE THRESHOLD
24 75 ft / 23 m 4,467 ft / 1,361 m 235.91° / 243.39° ASPHALT 0 ft / 0 m 0 ft / 0 m APP EDGE THRESHOLD ODALS REIL-OMNI

KSPA

Details ICAO KSPA (SPA)
Name SPARTANBURG DOWNTOWN MEM
Region United States
Timezone America/New_York (UTC-4.0)
Stats Elevation 799 ft / 244 m (AMSL)
Location 34.914600° -81.954400°
Runways 1
Magnetic Variation 7.281° W

METAR

KSPA 020855Z AUTO 00000KT 10SM CLR 12/08 A2991 RMK AO2

Decode

TAF

Not found

Destination Runways

ID Width Length Bearing (true/mag) Surface Threshold Overrun Markings Lighting
05 99 ft / 30 m 5,206 ft / 1,587 m 41.41° / 48.69° ASPHALT 0 ft / 0 m 0 ft / 0 m APP EDGE THRESHOLD MALSR
23 99 ft / 30 m 5,206 ft / 1,587 m 221.42° / 228.70° ASPHALT 0 ft / 0 m 0 ft / 0 m APP EDGE THRESHOLD